Time;durP1;ratioP1;P1;durP2;ratioP2;P2;SDS_P1;SDS_P2;PMS_P1;PMS_P2;Temp;Humidity;BMP_temperature;BMP_pressure;BME280_temperature;BME280_humidity;BME280_pressure;Samples;Min_cycle;Max_cycle;Signal;HPM_P1;HPM_P2
2021/09/11 00:01:03;;;;;;;10.88;5.80;;;;;;;;;;6156905;28;20121;-81
2021/09/11 00:04:05;;;;;;;10.27;5.80;;;;;;;;;;6143386;28;20175;-82
2021/09/11 00:07:06;;;;;;;14.13;6.57;;;;;;;;;;6141943;28;20047;-81
2021/09/11 00:10:10;;;;;;;24.63;5.88;;;;;;;;;;6143690;28;20039;-82
2021/09/11 00:13:11;;;;;;;15.15;6.40;;;;;;;;;;6126810;28;20114;-83
2021/09/11 00:16:13;;;;;;;12.07;6.30;;;;;;;;;;6158976;28;20046;-81
2021/09/11 00:19:15;;;;;;;28.60;6.63;;;;;;;;;;6149426;28;20046;-83
2021/09/11 00:22:16;;;;;;;18.92;6.53;;;;;;;;;;6167218;28;20039;-82
2021/09/11 00:25:18;;;;;;;13.68;6.03;;;;;;;;;;6164279;28;20043;-83
2021/09/11 00:28:19;;;;;;;22.08;6.85;;;;;;;;;;6165038;28;20045;-83
2021/09/11 00:31:21;;;;;;;16.67;6.45;;;;;;;;;;6163432;28;20047;-83
2021/09/11 00:34:23;;;;;;;21.83;6.07;;;;;;;;;;6155711;28;20043;-83
2021/09/11 00:37:24;;;;;;;19.98;5.75;;;;;;;;;;6140549;28;20058;-82
2021/09/11 00:40:26;;;;;;;28.15;6.05;;;;;;;;;;6155592;28;20054;-83
2021/09/11 00:43:28;;;;;;;22.38;6.00;;;;;;;;;;6139938;28;20118;-82
2021/09/11 00:46:29;;;;;;;30.67;6.70;;;;;;;;;;6131765;28;20057;-83
2021/09/11 00:49:31;;;;;;;11.70;6.03;;;;;;;;;;6165092;28;20104;-81
2021/09/11 00:52:33;;;;;;;14.40;5.97;;;;;;;;;;6165479;28;20561;-82
2021/09/11 00:55:36;;;;;;;51.20;6.15;;;;;;;;;;6147510;28;20054;-83
2021/09/11 00:58:38;;;;;;;16.23;5.55;;;;;;;;;;6144313;28;20054;-81
2021/09/11 01:01:40;;;;;;;7.70;5.43;;;;;;;;;;6143267;28;20070;-83
2021/09/11 01:04:42;;;;;;;9.25;5.80;;;;;;;;;;6147752;28;20130;-82
2021/09/11 01:07:45;;;;;;;9.00;5.63;;;;;;;;;;6151589;28;20224;-82
2021/09/11 01:10:47;;;;;;;26.63;6.07;;;;;;;;;;6135078;28;20067;-83
2021/09/11 01:13:48;;;;;;;21.40;7.38;;;;;;;;;;6140182;28;20224;-83
2021/09/11 01:16:50;;;;;;;17.65;6.50;;;;;;;;;;6140193;28;20093;-81
2021/09/11 01:19:52;;;;;;;20.48;6.00;;;;;;;;;;6140749;28;20046;-83
2021/09/11 01:22:54;;;;;;;23.45;7.10;;;;;;;;;;6118869;29;20489;-82
2021/09/11 01:25:55;;;;;;;10.97;5.67;;;;;;;;;;6142614;28;20031;-82
2021/09/11 01:28:57;;;;;;;13.45;5.15;;;;;;;;;;6142877;28;20461;-83
2021/09/11 01:31:59;;;;;;;10.02;4.72;;;;;;;;;;6163133;28;20637;-83
2021/09/11 01:35:00;;;;;;;11.25;5.95;;;;;;;;;;6174207;28;20049;-82
2021/09/11 01:38:03;;;;;;;16.27;6.35;;;;;;;;;;6155765;28;20042;-82
2021/09/11 01:41:04;;;;;;;39.27;6.57;;;;;;;;;;6167238;28;20424;-83
2021/09/11 01:44:06;;;;;;;16.23;6.63;;;;;;;;;;6154490;28;20506;-82
2021/09/11 01:47:07;;;;;;;29.52;6.80;;;;;;;;;;6157126;28;20643;-82
2021/09/11 01:50:10;;;;;;;32.90;7.05;;;;;;;;;;6155648;28;20098;-81
2021/09/11 01:53:12;;;;;;;;;;;;;;;;;;6170534;28;20042;-84
2021/09/11 01:56:14;;;;;;;11.80;6.60;;;;;;;;;;6195318;28;19928;-82
2021/09/11 01:59:15;;;;;;;18.77;7.57;;;;;;;;;;6194733;28;20250;-82
2021/09/11 02:02:17;;;;;;;24.10;7.85;;;;;;;;;;6169817;28;20049;-82
2021/09/11 02:05:19;;;;;;;19.95;7.38;;;;;;;;;;6171942;28;20045;-82
2021/09/11 02:08:20;;;;;;;15.52;7.32;;;;;;;;;;6171575;28;20057;-83
2021/09/11 02:11:22;;;;;;;12.80;6.72;;;;;;;;;;6163199;28;20097;-82
2021/09/11 02:14:24;;;;;;;11.88;6.30;;;;;;;;;;6146797;28;20045;-82
2021/09/11 02:17:26;;;;;;;12.30;5.75;;;;;;;;;;6150354;28;20183;-81
2021/09/11 02:20:28;;;;;;;23.20;6.82;;;;;;;;;;6150555;28;20047;-84
2021/09/11 02:23:29;;;;;;;14.00;6.15;;;;;;;;;;6148911;28;20425;-84
2021/09/11 02:26:31;;;;;;;14.50;6.47;;;;;;;;;;6133076;28;20415;-82
2021/09/11 02:29:34;;;;;;;18.60;6.43;;;;;;;;;;6149700;28;20119;-84
2021/09/11 02:32:35;;;;;;;15.87;7.33;;;;;;;;;;6147764;28;20047;-83
2021/09/11 02:35:37;;;;;;;14.35;6.32;;;;;;;;;;6149743;28;20043;-83
2021/09/11 02:38:39;;;;;;;14.32;5.85;;;;;;;;;;6152287;28;20119;-84
2021/09/11 02:41:40;;;;;;;11.05;5.50;;;;;;;;;;6129609;28;20054;-83
2021/09/11 02:44:42;;;;;;;11.75;5.72;;;;;;;;;;6149045;28;20047;-82
2021/09/11 02:47:43;;;;;;;14.80;5.57;;;;;;;;;;6143443;28;20043;-82
2021/09/11 02:50:45;;;;;;;10.10;5.15;;;;;;;;;;6172516;28;20046;-83
2021/09/11 02:53:47;;;;;;;14.40;6.03;;;;;;;;;;6166482;28;20164;-82
2021/09/11 02:56:49;;;;;;;8.30;4.85;;;;;;;;;;6153157;28;20039;-82
2021/09/11 02:59:50;;;;;;;11.73;5.10;;;;;;;;;;6156174;28;20055;-82
2021/09/11 03:02:52;;;;;;;8.02;4.68;;;;;;;;;;6176941;28;20062;-83
2021/09/11 03:05:54;;;;;;;10.38;5.50;;;;;;;;;;6177137;28;20059;-84
2021/09/11 03:08:56;;;;;;;8.13;5.03;;;;;;;;;;6167374;28;20063;-84
2021/09/11 03:11:57;;;;;;;9.15;5.63;;;;;;;;;;6152435;28;20039;-82
2021/09/11 03:14:59;;;;;;;8.32;5.15;;;;;;;;;;6136718;28;20043;-82
2021/09/11 03:18:01;;;;;;;11.45;5.47;;;;;;;;;;6168808;28;20051;-83
2021/09/11 03:21:02;;;;;;;13.35;5.95;;;;;;;;;;6168228;28;20110;-83
2021/09/11 03:24:04;;;;;;;10.02;5.90;;;;;;;;;;6144624;28;20051;-82
2021/09/11 03:27:06;;;;;;;11.25;5.97;;;;;;;;;;6152677;28;20542;-82
2021/09/11 03:30:08;;;;;;;15.82;6.47;;;;;;;;;;6155078;28;20043;-83
2021/09/11 03:33:10;;;;;;;12.48;6.57;;;;;;;;;;6150778;28;20123;-82
2021/09/11 03:36:12;;;;;;;12.73;6.80;;;;;;;;;;6150739;28;20043;-85
2021/09/11 03:39:13;;;;;;;16.42;6.60;;;;;;;;;;6163955;28;20439;-82
2021/09/11 03:42:15;;;;;;;15.30;7.25;;;;;;;;;;6150198;28;20074;-82
2021/09/11 03:45:17;;;;;;;12.95;7.10;;;;;;;;;;6152435;28;20520;-83
2021/09/11 03:48:18;;;;;;;13.77;6.07;;;;;;;;;;6151028;28;20043;-82
2021/09/11 03:51:20;;;;;;;16.95;6.85;;;;;;;;;;6134178;28;20047;-84
2021/09/11 03:54:21;;;;;;;15.80;6.80;;;;;;;;;;6145166;28;20103;-83
2021/09/11 03:57:23;;;;;;;14.60;6.75;;;;;;;;;;6168969;28;20086;-82
2021/09/11 04:00:25;;;;;;;18.48;7.70;;;;;;;;;;6154302;28;20047;-84
2021/09/11 04:03:26;;;;;;;18.60;7.00;;;;;;;;;;6152237;28;20492;-82
2021/09/11 04:06:28;;;;;;;10.68;5.53;;;;;;;;;;6152873;28;20825;-83
2021/09/11 04:09:30;;;;;;;11.77;5.00;;;;;;;;;;6150720;28;20493;-84
2021/09/11 04:12:31;;;;;;;9.82;4.75;;;;;;;;;;6153596;28;20053;-81
2021/09/11 04:15:33;;;;;;;12.75;4.88;;;;;;;;;;6152891;28;20075;-83
2021/09/11 04:18:34;;;;;;;12.75;5.07;;;;;;;;;;6136450;28;20178;-82
2021/09/11 04:21:36;;;;;;;13.43;5.22;;;;;;;;;;6151940;28;20488;-82
2021/09/11 04:24:38;;;;;;;11.05;5.53;;;;;;;;;;6144458;28;20043;-82
2021/09/11 04:27:39;;;;;;;23.73;5.97;;;;;;;;;;6127138;28;20098;-82
2021/09/11 04:30:41;;;;;;;24.98;6.35;;;;;;;;;;6143056;28;20070;-82
2021/09/11 04:33:43;;;;;;;10.52;5.72;;;;;;;;;;6122443;28;20142;-82
2021/09/11 04:36:44;;;;;;;10.48;5.25;;;;;;;;;;6119337;29;20099;-82
2021/09/11 04:39:46;;;;;;;83.80;7.43;;;;;;;;;;6126102;28;20151;-82
2021/09/11 04:42:47;;;;;;;14.50;6.78;;;;;;;;;;6165968;28;20051;-82
2021/09/11 04:45:49;;;;;;;11.90;6.20;;;;;;;;;;6149483;28;20050;-83
2021/09/11 04:48:51;;;;;;;10.82;5.65;;;;;;;;;;6195981;28;20109;-81
2021/09/11 04:51:53;;;;;;;11.63;5.80;;;;;;;;;;6196583;28;20414;-83
2021/09/11 04:54:54;;;;;;;21.75;6.20;;;;;;;;;;6159368;28;20111;-82
2021/09/11 04:57:56;;;;;;;18.42;6.68;;;;;;;;;;6163833;28;20126;-82
2021/09/11 05:00:57;;;;;;;12.93;6.28;;;;;;;;;;6144947;28;20054;-83
2021/09/11 05:03:59;;;;;;;47.70;7.30;;;;;;;;;;6144211;28;20047;-84
2021/09/11 05:07:01;;;;;;;13.55;6.20;;;;;;;;;;6147511;28;20047;-83
2021/09/11 05:10:03;;;;;;;21.70;7.70;;;;;;;;;;6144593;28;20043;-82
2021/09/11 05:13:05;;;;;;;33.63;8.23;;;;;;;;;;6159709;28;20427;-83
2021/09/11 05:16:06;;;;;;;14.60;7.05;;;;;;;;;;6150056;28;20189;-83
2021/09/11 05:19:08;;;;;;;14.60;6.88;;;;;;;;;;6165619;28;20133;-83
2021/09/11 05:22:10;;;;;;;16.45;6.70;;;;;;;;;;6148157;28;20058;-82
2021/09/11 05:25:13;;;;;;;23.25;6.75;;;;;;;;;;6166101;28;20035;-81
2021/09/11 05:28:15;;;;;;;16.63;6.60;;;;;;;;;;6166962;28;20121;-81
2021/09/11 05:31:16;;;;;;;15.95;5.88;;;;;;;;;;6151138;28;20043;-82
2021/09/11 05:34:18;;;;;;;12.13;6.30;;;;;;;;;;6143545;28;20058;-82
2021/09/11 05:37:20;;;;;;;12.57;6.70;;;;;;;;;;6143987;28;20406;-83
2021/09/11 05:40:21;;;;;;;29.70;6.47;;;;;;;;;;6144581;28;20935;-82
2021/09/11 05:43:24;;;;;;;20.23;7.18;;;;;;;;;;6165588;28;20049;-81
2021/09/11 05:46:26;;;;;;;19.42;8.15;;;;;;;;;;6158092;28;20042;-82
2021/09/11 05:49:27;;;;;;;16.60;6.70;;;;;;;;;;6152155;28;20046;-83
2021/09/11 05:52:29;;;;;;;24.95;7.50;;;;;;;;;;6165085;28;20062;-81
2021/09/11 05:55:30;;;;;;;45.97;8.55;;;;;;;;;;6149165;28;20131;-81
2021/09/11 05:58:32;;;;;;;23.15;6.95;;;;;;;;;;6149137;28;20584;-82
2021/09/11 06:01:34;;;;;;;34.28;7.40;;;;;;;;;;6134813;28;20050;-82
2021/09/11 06:04:35;;;;;;;18.42;7.13;;;;;;;;;;6153789;28;20401;-80
2021/09/11 06:07:37;;;;;;;16.27;6.90;;;;;;;;;;6153717;28;20106;-80
2021/09/11 06:10:39;;;;;;;14.35;6.43;;;;;;;;;;6142986;28;20126;-79
2021/09/11 06:13:41;;;;;;;11.50;6.28;;;;;;;;;;6154721;28;20127;-81
2021/09/11 06:16:42;;;;;;;13.50;6.68;;;;;;;;;;6160976;28;20047;-81
2021/09/11 06:19:44;;;;;;;14.38;7.00;;;;;;;;;;6165958;28;20117;-81
2021/09/11 06:22:46;;;;;;;14.90;6.80;;;;;;;;;;6138292;28;20048;-81
2021/09/11 06:25:49;;;;;;;22.25;7.65;;;;;;;;;;6159277;28;20134;-83
2021/09/11 06:28:50;;;;;;;13.82;7.25;;;;;;;;;;6171423;28;20054;-82
2021/09/11 06:31:52;;;;;;;16.17;7.80;;;;;;;;;;6137743;28;20047;-82
2021/09/11 06:34:53;;;;;;;14.52;6.90;;;;;;;;;;6134104;28;20043;-82
2021/09/11 06:37:55;;;;;;;20.58;7.82;;;;;;;;;;6150575;28;20136;-82
2021/09/11 06:40:57;;;;;;;18.55;8.38;;;;;;;;;;6152969;28;20043;-84
2021/09/11 06:43:58;;;;;;;18.23;7.93;;;;;;;;;;6171096;28;20046;-82
2021/09/11 06:47:02;;;;;;;16.85;8.20;;;;;;;;;;6163401;28;20051;-82
2021/09/11 06:50:04;;;;;;;14.10;7.65;;;;;;;;;;6171786;28;20051;-83
2021/09/11 06:53:07;;;;;;;14.35;7.63;;;;;;;;;;6152549;28;20419;-82
2021/09/11 06:56:08;;;;;;;11.32;7.25;;;;;;;;;;6125058;28;20128;-82
2021/09/11 06:59:10;;;;;;;12.23;7.10;;;;;;;;;;6124944;29;20050;-83
2021/09/11 07:02:12;;;;;;;12.77;7.45;;;;;;;;;;6148147;28;20055;-83
2021/09/11 07:05:13;;;;;;;12.85;7.15;;;;;;;;;;6151964;28;20102;-82
2021/09/11 07:08:15;;;;;;;10.55;7.25;;;;;;;;;;6153030;28;20106;-83
2021/09/11 07:11:17;;;;;;;13.10;7.90;;;;;;;;;;6150550;28;20050;-82
2021/09/11 07:14:18;;;;;;;10.90;7.50;;;;;;;;;;6141568;28;20047;-82
2021/09/11 07:17:20;;;;;;;8.65;6.07;;;;;;;;;;6153841;28;20109;-82
2021/09/11 07:20:22;;;;;;;7.72;6.35;;;;;;;;;;6181616;28;20047;-82
2021/09/11 07:23:24;;;;;;;9.20;6.28;;;;;;;;;;6192382;28;20066;-82
2021/09/11 07:26:25;;;;;;;8.05;5.78;;;;;;;;;;6174076;28;20034;-81
2021/09/11 07:29:27;;;;;;;8.05;5.80;;;;;;;;;;6157362;28;20126;-81
2021/09/11 07:32:29;;;;;;;11.07;6.10;;;;;;;;;;6149114;28;20071;-83
2021/09/11 07:35:30;;;;;;;8.65;5.97;;;;;;;;;;6156881;28;20070;-82
2021/09/11 07:38:36;;;;;;;7.47;5.85;;;;;;;;;;6155538;28;20082;-81
2021/09/11 07:41:38;;;;;;;8.68;6.38;;;;;;;;;;6179027;28;20063;-82
2021/09/11 07:44:39;;;;;;;7.68;4.57;;;;;;;;;;6152840;28;20058;-83
2021/09/11 07:47:41;;;;;;;6.20;4.35;;;;;;;;;;6151430;28;20048;-83
2021/09/11 07:50:43;;;;;;;5.25;3.92;;;;;;;;;;6142718;28;20114;-82
2021/09/11 07:53:45;;;;;;;5.50;4.10;;;;;;;;;;6168620;28;20057;-81
2021/09/11 07:56:47;;;;;;;8.38;4.32;;;;;;;;;;6160226;28;20051;-82
2021/09/11 07:59:48;;;;;;;6.10;4.40;;;;;;;;;;6161546;28;20046;-82
2021/09/11 08:02:50;;;;;;;5.07;4.22;;;;;;;;;;6181995;28;20057;-82
2021/09/11 08:05:54;;;;;;;6.47;3.97;;;;;;;;;;6183260;28;20110;-82
2021/09/11 08:08:56;;;;;;;5.13;4.43;;;;;;;;;;6170136;28;20055;-80
2021/09/11 08:11:57;;;;;;;5.32;4.32;;;;;;;;;;6143516;28;20098;-80
2021/09/11 08:14:59;;;;;;;5.65;4.10;;;;;;;;;;6157089;28;20123;-81
2021/09/11 08:18:01;;;;;;;7.18;4.63;;;;;;;;;;6139669;28;20431;-80
2021/09/11 08:21:04;;;;;;;6.70;4.87;;;;;;;;;;6154847;28;20051;-82
2021/09/11 08:24:05;;;;;;;6.97;5.65;;;;;;;;;;6154150;28;20047;-80
2021/09/11 08:27:07;;;;;;;7.80;5.93;;;;;;;;;;6153828;28;20118;-82
2021/09/11 08:30:09;;;;;;;12.82;6.72;;;;;;;;;;6157579;28;20049;-82
2021/09/11 08:33:12;;;;;;;11.15;6.53;;;;;;;;;;6152667;28;20053;-82
2021/09/11 08:36:14;;;;;;;12.60;6.88;;;;;;;;;;6172157;28;20126;-82
2021/09/11 08:39:16;;;;;;;10.18;7.10;;;;;;;;;;6143707;28;20131;-80
2021/09/11 08:42:19;;;;;;;12.18;8.35;;;;;;;;;;6143870;28;20055;-81
2021/09/11 08:45:20;;;;;;;10.95;7.70;;;;;;;;;;6145797;28;20407;-81
2021/09/11 08:48:24;;;;;;;10.13;8.25;;;;;;;;;;6191545;28;20035;-82
2021/09/11 08:51:26;;;;;;;12.90;8.60;;;;;;;;;;6174285;28;20070;-82
2021/09/11 08:54:27;;;;;;;11.75;8.85;;;;;;;;;;6167128;28;20130;-81
2021/09/11 08:57:30;;;;;;;12.57;9.55;;;;;;;;;;6169073;28;20197;-82
2021/09/11 09:00:44;;;;;;;15.73;11.43;;;;;;;;;;6165849;28;20049;-81
2021/09/11 09:03:46;;;;;;;13.82;11.02;;;;;;;;;;6171916;28;20055;-81
2021/09/11 09:06:56;;;;;;;13.05;10.20;;;;;;;;;;6173127;28;20046;-82
2021/09/11 09:10:18;;;;;;;12.25;10.60;;;;;;;;;;6161335;28;20050;-82
2021/09/11 09:13:20;;;;;;;13.87;11.57;;;;;;;;;;6166347;28;20046;-82
2021/09/11 09:16:23;;;;;;;13.88;10.80;;;;;;;;;;6150878;28;20050;-82
2021/09/11 09:19:25;;;;;;;13.68;11.52;;;;;;;;;;6165885;28;20106;-82
2021/09/11 09:22:27;;;;;;;;;;;;;;;;;;6160555;28;20121;-82
2021/09/11 09:25:34;;;;;;;13.45;10.57;;;;;;;;;;6161983;28;19926;-82
2021/09/11 09:28:36;;;;;;;14.98;11.07;;;;;;;;;;6170203;28;20047;-80
2021/09/11 09:31:38;;;;;;;10.73;9.05;;;;;;;;;;6173769;28;20081;-82
2021/09/11 09:34:43;;;;;;;11.18;9.85;;;;;;;;;;6146677;28;20047;-81
2021/09/11 09:38:13;;;;;;;10.32;8.43;;;;;;;;;;6146205;28;20057;-81
2021/09/11 09:41:15;;;;;;;9.80;8.57;;;;;;;;;;6137019;28;20039;-81
2021/09/11 09:44:20;;;;;;;8.73;7.85;;;;;;;;;;6171098;28;20061;-79
2021/09/11 09:47:23;;;;;;;9.07;7.13;;;;;;;;;;6163010;28;20053;-80
2021/09/11 09:50:30;;;;;;;7.47;6.68;;;;;;;;;;6176040;28;20070;-82
2021/09/11 09:53:32;;;;;;;6.88;5.95;;;;;;;;;;6161441;28;20051;-81
2021/09/11 09:56:34;;;;;;;7.22;6.55;;;;;;;;;;6159980;28;20043;-82
2021/09/11 09:59:37;;;;;;;6.57;5.97;;;;;;;;;;6167860;28;20053;-81
2021/09/11 10:02:39;;;;;;;6.55;5.82;;;;;;;;;;6147248;28;20118;-81
2021/09/11 10:05:42;;;;;;;;;;;;;;;;;;6132493;28;20488;-81
2021/09/11 10:08:48;;;;;;;7.80;5.85;;;;;;;;;;6115987;29;20407;-81
2021/09/11 10:11:51;;;;;;;6.75;6.05;;;;;;;;;;6148617;28;20130;-81
2021/09/11 10:14:55;;;;;;;6.65;5.95;;;;;;;;;;6147738;28;20039;-82
2021/09/11 10:17:58;;;;;;;6.95;6.30;;;;;;;;;;6147572;28;20047;-81
2021/09/11 10:21:27;;;;;;;6.97;5.95;;;;;;;;;;6148741;28;20035;-80
2021/09/11 10:24:33;;;;;;;7.00;5.80;;;;;;;;;;6152137;28;20507;-81
2021/09/11 10:27:37;;;;;;;7.28;5.50;;;;;;;;;;6171771;28;20049;-81
2021/09/11 10:31:05;;;;;;;6.00;5.40;;;;;;;;;;6161395;28;20049;-79
2021/09/11 10:34:07;;;;;;;5.22;4.72;;;;;;;;;;6139189;28;20047;-79
2021/09/11 10:37:09;;;;;;;4.20;3.80;;;;;;;;;;6141137;28;20043;-79
2021/09/11 10:40:12;;;;;;;5.45;4.55;;;;;;;;;;6142200;28;20047;-79
2021/09/11 10:43:28;;;;;;;5.70;5.20;;;;;;;;;;6161356;28;20500;-79
2021/09/11 10:46:50;;;;;;;5.88;5.22;;;;;;;;;;6165837;28;20051;-79
2021/09/11 10:50:11;;;;;;;6.80;5.72;;;;;;;;;;6169780;28;20051;-79
2021/09/11 10:53:20;;;;;;;6.10;5.50;;;;;;;;;;6132003;28;20043;-80
2021/09/11 10:56:27;;;;;;;6.43;5.85;;;;;;;;;;6138564;28;20560;-79
2021/09/11 10:59:50;;;;;;;6.13;5.50;;;;;;;;;;6145199;28;20067;-82
2021/09/11 11:03:17;;;;;;;6.00;5.50;;;;;;;;;;6166270;28;20039;-82
2021/09/11 11:06:20;;;;;;;6.30;5.20;;;;;;;;;;6167780;28;20126;-81
2021/09/11 11:09:22;;;;;;;6.93;5.05;;;;;;;;;;6160674;28;20051;-82
2021/09/11 11:12:24;;;;;;;;;;;;;;;;;;6144423;28;20271;-82
2021/09/11 11:15:27;;;;;;;5.38;4.88;;;;;;;;;;6155039;28;20014;-82
2021/09/11 11:18:29;;;;;;;5.38;4.50;;;;;;;;;;6170000;28;20133;-80
2021/09/11 11:21:30;;;;;;;5.55;4.40;;;;;;;;;;6167353;28;20047;-81
2021/09/11 11:24:35;;;;;;;6.97;5.07;;;;;;;;;;6162549;28;20057;-81
2021/09/11 11:27:38;;;;;;;4.80;4.40;;;;;;;;;;6145411;28;20059;-80
2021/09/11 11:30:42;;;;;;;5.18;4.03;;;;;;;;;;6156222;28;20047;-80
2021/09/11 11:33:46;;;;;;;4.70;4.20;;;;;;;;;;6168047;28;20139;-81
2021/09/11 11:36:56;;;;;;;4.70;4.30;;;;;;;;;;6169480;28;20193;-81
2021/09/11 11:40:01;;;;;;;4.45;4.15;;;;;;;;;;6160804;28;20373;-82
2021/09/11 11:43:05;;;;;;;4.95;3.50;;;;;;;;;;6167703;28;20492;-81
2021/09/11 11:46:06;;;;;;;4.00;3.60;;;;;;;;;;6169033;28;20063;-81
2021/09/11 11:49:08;;;;;;;3.67;3.38;;;;;;;;;;6171471;28;20043;-81
2021/09/11 11:52:13;;;;;;;5.82;3.60;;;;;;;;;;6173606;28;20049;-79
2021/09/11 11:55:14;;;;;;;3.67;3.28;;;;;;;;;;6157516;28;20051;-81
2021/09/11 11:58:24;;;;;;;3.60;3.30;;;;;;;;;;6146526;28;20049;-80
2021/09/11 12:01:29;;;;;;;4.03;3.10;;;;;;;;;;6145937;28;20071;-80
2021/09/11 12:04:32;;;;;;;3.63;3.33;;;;;;;;;;6145260;28;20523;-82
2021/09/11 12:07:33;;;;;;;3.50;3.20;;;;;;;;;;6144712;28;20408;-79
2021/09/11 12:10:35;;;;;;;3.13;2.93;;;;;;;;;;6122110;28;20052;-79
2021/09/11 12:13:37;;;;;;;4.18;3.15;;;;;;;;;;6145722;28;20097;-81
2021/09/11 12:16:38;;;;;;;3.67;3.38;;;;;;;;;;6148619;28;20043;-81
2021/09/11 12:19:40;;;;;;;3.22;2.92;;;;;;;;;;6109952;28;20198;-81
2021/09/11 12:22:41;;;;;;;4.00;3.00;;;;;;;;;;6146065;28;20035;-81
2021/09/11 12:25:52;;;;;;;2.93;2.67;;;;;;;;;;6148683;28;20141;-81
2021/09/11 12:29:04;;;;;;;3.33;2.78;;;;;;;;;;6148543;28;20111;-81
2021/09/11 12:32:06;;;;;;;3.72;3.30;;;;;;;;;;6149033;28;20174;-80
2021/09/11 12:35:09;;;;;;;3.10;2.90;;;;;;;;;;6163136;28;20036;-81
2021/09/11 12:38:11;;;;;;;3.10;2.90;;;;;;;;;;6147810;28;20045;-81
2021/09/11 12:41:13;;;;;;;3.60;2.87;;;;;;;;;;6153112;28;20042;-81
2021/09/11 12:44:15;;;;;;;3.72;2.95;;;;;;;;;;6171172;28;20049;-81
2021/09/11 12:47:17;;;;;;;;;;;;;;;;;;6147720;28;20039;-81
2021/09/11 12:50:20;;;;;;;3.47;2.97;;;;;;;;;;6149694;28;19985;-81
2021/09/11 12:53:22;;;;;;;4.53;2.88;;;;;;;;;;6161642;28;20043;-81
2021/09/11 12:56:24;;;;;;;2.90;2.70;;;;;;;;;;6147515;28;20091;-81
2021/09/11 12:59:26;;;;;;;3.40;3.10;;;;;;;;;;6148968;28;20058;-81
2021/09/11 13:02:27;;;;;;;3.00;2.70;;;;;;;;;;6147644;28;20193;-81
2021/09/11 13:05:29;;;;;;;3.17;2.92;;;;;;;;;;6147666;28;20040;-81
2021/09/11 13:08:31;;;;;;;5.40;2.97;;;;;;;;;;6149580;28;20043;-80
2021/09/11 13:11:33;;;;;;;3.20;2.90;;;;;;;;;;6146632;28;20049;-80
2021/09/11 13:14:35;;;;;;;3.35;2.83;;;;;;;;;;6148613;28;20609;-82
2021/09/11 13:17:36;;;;;;;3.55;2.90;;;;;;;;;;6147903;28;20139;-82
2021/09/11 13:20:38;;;;;;;3.22;2.80;;;;;;;;;;6149472;28;20054;-82
2021/09/11 13:23:45;;;;;;;3.50;3.20;;;;;;;;;;6149479;28;20450;-82
2021/09/11 13:26:48;;;;;;;3.85;3.35;;;;;;;;;;6146944;28;20051;-81
2021/09/11 13:29:49;;;;;;;5.40;3.58;;;;;;;;;;6152596;28;20065;-82
2021/09/11 13:32:51;;;;;;;4.03;3.22;;;;;;;;;;6153939;28;20532;-82
2021/09/11 13:35:52;;;;;;;3.78;3.30;;;;;;;;;;6171992;28;20542;-82
2021/09/11 13:38:56;;;;;;;3.50;3.20;;;;;;;;;;6171193;28;20181;-82
2021/09/11 13:41:57;;;;;;;3.50;3.20;;;;;;;;;;6171838;28;20051;-82
2021/09/11 13:44:59;;;;;;;2.85;2.63;;;;;;;;;;6152091;28;20067;-82
2021/09/11 13:48:01;;;;;;;3.97;3.13;;;;;;;;;;6185218;28;20106;-82
2021/09/11 13:51:02;;;;;;;3.00;2.70;;;;;;;;;;6173075;28;20043;-82
2021/09/11 13:54:04;;;;;;;3.30;3.00;;;;;;;;;;6162587;28;20062;-81
2021/09/11 13:57:06;;;;;;;5.75;3.08;;;;;;;;;;6150545;28;20055;-81
2021/09/11 14:00:08;;;;;;;3.92;3.40;;;;;;;;;;6150771;28;20043;-80
2021/09/11 14:03:09;;;;;;;3.35;3.00;;;;;;;;;;6145989;28;20044;-80
2021/09/11 14:06:11;;;;;;;4.20;3.10;;;;;;;;;;6147966;28;20054;-80
2021/09/11 14:09:15;;;;;;;3.13;2.75;;;;;;;;;;6131350;28;20139;-80
2021/09/11 14:12:16;;;;;;;3.28;2.92;;;;;;;;;;6148918;28;20110;-82
2021/09/11 14:15:19;;;;;;;4.63;2.85;;;;;;;;;;6149457;28;20140;-83
2021/09/11 14:18:21;;;;;;;4.60;2.88;;;;;;;;;;6149547;28;20126;-81
2021/09/11 14:21:23;;;;;;;3.47;3.17;;;;;;;;;;6148187;28;20039;-79
2021/09/11 14:24:24;;;;;;;3.25;2.80;;;;;;;;;;6145317;28;20107;-79
2021/09/11 14:27:26;;;;;;;5.00;3.10;;;;;;;;;;6148368;28;20053;-79
2021/09/11 14:30:28;;;;;;;4.32;2.63;;;;;;;;;;6157438;28;20045;-79
2021/09/11 14:33:29;;;;;;;3.33;2.78;;;;;;;;;;6171006;28;20043;-79
2021/09/11 14:36:31;;;;;;;5.18;2.60;;;;;;;;;;6167702;28;20043;-79
2021/09/11 14:39:33;;;;;;;2.88;2.67;;;;;;;;;;6164101;28;20145;-79
2021/09/11 14:42:35;;;;;;;2.78;2.50;;;;;;;;;;6168403;28;20131;-80
2021/09/11 14:45:52;;;;;;;2.92;2.50;;;;;;;;;;6167468;28;20073;-80
2021/09/11 14:48:54;;;;;;;4.22;2.33;;;;;;;;;;6168793;28;20496;-80
2021/09/11 14:51:55;;;;;;;2.87;2.20;;;;;;;;;;6171576;28;20061;-80
2021/09/11 14:54:57;;;;;;;2.90;2.35;;;;;;;;;;6170825;28;20134;-78
2021/09/11 14:58:00;;;;;;;2.50;2.30;;;;;;;;;;6170926;28;20148;-79
2021/09/11 15:01:01;;;;;;;3.25;2.40;;;;;;;;;;6150259;28;20043;-79
2021/09/11 15:04:03;;;;;;;2.60;2.40;;;;;;;;;;6171052;28;20046;-79
2021/09/11 15:07:08;;;;;;;3.97;2.45;;;;;;;;;;6168565;28;20050;-80
2021/09/11 15:10:10;;;;;;;4.63;2.50;;;;;;;;;;6172846;28;20135;-79
2021/09/11 15:13:16;;;;;;;2.97;2.55;;;;;;;;;;6173147;28;20058;-80
2021/09/11 15:16:18;;;;;;;3.28;2.42;;;;;;;;;;6146199;28;20058;-79
2021/09/11 15:19:20;;;;;;;4.07;2.70;;;;;;;;;;6178117;28;20066;-80
2021/09/11 15:22:21;;;;;;;4.68;2.35;;;;;;;;;;6151917;28;20138;-81
2021/09/11 15:25:28;;;;;;;2.65;2.13;;;;;;;;;;6172154;28;20085;-81
2021/09/11 15:28:29;;;;;;;4.85;2.20;;;;;;;;;;6175786;28;20047;-81
2021/09/11 15:31:31;;;;;;;2.57;2.37;;;;;;;;;;6157070;28;20435;-81
2021/09/11 15:34:33;;;;;;;2.85;2.20;;;;;;;;;;6151798;28;20046;-81
2021/09/11 15:37:36;;;;;;;3.03;2.10;;;;;;;;;;6150572;28;20153;-81
2021/09/11 15:40:37;;;;;;;3.53;2.00;;;;;;;;;;6167791;28;20047;-80
2021/09/11 15:43:39;;;;;;;1.98;1.77;;;;;;;;;;6174276;28;20053;-81
2021/09/11 15:46:41;;;;;;;3.03;2.10;;;;;;;;;;6159063;28;20598;-82
2021/09/11 15:49:42;;;;;;;2.97;2.33;;;;;;;;;;6199200;28;20411;-81
2021/09/11 15:52:44;;;;;;;3.47;2.05;;;;;;;;;;6196010;28;20118;-82
2021/09/11 15:55:46;;;;;;;2.77;2.10;;;;;;;;;;6170309;28;20043;-81
2021/09/11 15:58:47;;;;;;;2.63;1.77;;;;;;;;;;6150002;28;20051;-82
2021/09/11 16:01:49;;;;;;;3.10;2.08;;;;;;;;;;6145662;28;20051;-81
2021/09/11 16:04:51;;;;;;;2.55;2.35;;;;;;;;;;6148319;28;20524;-81
2021/09/11 16:07:53;;;;;;;2.08;1.88;;;;;;;;;;6151740;28;20058;-81
2021/09/11 16:10:55;;;;;;;2.53;2.30;;;;;;;;;;6133541;28;20087;-81
2021/09/11 16:13:57;;;;;;;3.67;2.15;;;;;;;;;;6148819;28;20102;-81
2021/09/11 16:16:58;;;;;;;3.10;2.10;;;;;;;;;;6149008;28;20046;-83
2021/09/11 16:20:01;;;;;;;2.15;1.90;;;;;;;;;;6147920;28;20062;-82
2021/09/11 16:23:03;;;;;;;;;;;;;;;;;;6150526;28;20057;-81
2021/09/11 16:26:04;;;;;;;3.45;2.10;;;;;;;;;;6169472;28;19926;-81
2021/09/11 16:29:06;;;;;;;3.13;2.50;;;;;;;;;;6174531;28;20047;-82
2021/09/11 16:32:07;;;;;;;2.35;2.13;;;;;;;;;;6150711;28;20177;-82
2021/09/11 16:35:10;;;;;;;2.90;2.40;;;;;;;;;;6147925;28;20049;-82
2021/09/11 16:38:12;;;;;;;2.50;2.28;;;;;;;;;;6148768;28;20176;-81
2021/09/11 16:41:14;;;;;;;4.18;2.47;;;;;;;;;;6167797;28;20122;-81
2021/09/11 16:44:16;;;;;;;2.63;2.30;;;;;;;;;;6173204;28;20126;-79
2021/09/11 16:47:17;;;;;;;4.43;2.47;;;;;;;;;;6188215;28;20057;-80
2021/09/11 16:50:21;;;;;;;5.43;2.55;;;;;;;;;;6197800;28;20073;-81
2021/09/11 16:53:23;;;;;;;5.05;2.70;;;;;;;;;;6198475;28;20050;-80
2021/09/11 16:56:24;;;;;;;2.58;2.38;;;;;;;;;;6176929;28;20035;-81
2021/09/11 16:59:26;;;;;;;4.90;2.63;;;;;;;;;;6154032;28;20878;-81
2021/09/11 17:02:30;;;;;;;5.97;2.97;;;;;;;;;;6171551;28;20077;-80
2021/09/11 17:05:32;;;;;;;3.60;2.47;;;;;;;;;;6172408;28;20051;-81
2021/09/11 17:08:34;;;;;;;4.72;2.47;;;;;;;;;;6167933;28;20462;-82
2021/09/11 17:11:36;;;;;;;3.07;2.37;;;;;;;;;;6165131;28;20053;-81
2021/09/11 17:14:37;;;;;;;2.85;2.30;;;;;;;;;;6130412;28;21952;-82
2021/09/11 17:17:39;;;;;;;3.70;2.60;;;;;;;;;;6174297;28;20047;-81
2021/09/11 17:20:41;;;;;;;2.78;2.28;;;;;;;;;;6172712;28;20046;-82
2021/09/11 17:23:43;;;;;;;3.95;2.53;;;;;;;;;;6166767;28;20107;-80
2021/09/11 17:26:44;;;;;;;4.43;2.40;;;;;;;;;;6147346;28;20047;-80
2021/09/11 17:29:46;;;;;;;2.83;2.30;;;;;;;;;;6142926;28;20058;-80
2021/09/11 17:32:48;;;;;;;2.90;2.38;;;;;;;;;;6155577;28;20076;-81
2021/09/11 17:35:50;;;;;;;3.30;2.30;;;;;;;;;;6145396;28;20054;-81
2021/09/11 17:38:52;;;;;;;2.33;2.13;;;;;;;;;;6163333;28;20126;-81
2021/09/11 17:41:53;;;;;;;2.83;2.25;;;;;;;;;;6181879;28;20043;-82
2021/09/11 17:44:55;;;;;;;2.30;1.92;;;;;;;;;;6188548;28;20499;-81
2021/09/11 17:47:57;;;;;;;3.00;2.10;;;;;;;;;;6188226;28;20228;-81
2021/09/11 17:50:58;;;;;;;2.33;2.13;;;;;;;;;;6172459;28;20041;-81
2021/09/11 17:54:00;;;;;;;3.70;2.22;;;;;;;;;;6169638;28;20046;-81
2021/09/11 17:57:03;;;;;;;2.78;2.20;;;;;;;;;;6122801;28;20399;-81
2021/09/11 18:00:07;;;;;;;6.03;2.45;;;;;;;;;;6145668;28;20039;-81
2021/09/11 18:03:09;;;;;;;4.13;2.90;;;;;;;;;;6159535;28;20110;-81
2021/09/11 18:06:11;;;;;;;5.18;2.70;;;;;;;;;;6142721;28;20051;-81
2021/09/11 18:09:12;;;;;;;5.10;2.40;;;;;;;;;;6156807;28;20043;-81